Time;durP1;ratioP1;P1;durP2;ratioP2;P2;SDS_P1;SDS_P2;PMS_P1;PMS_P2;Temp;Humidity;BMP_temperature;BMP_pressure;BME280_temperature;BME280_humidity;BME280_pressure;Samples;Min_cycle;Max_cycle;Signal;HPM_P1;HPM_P2
2023/11/11 00:00:36;;;;;;;1.48;0.80;;;21.50;41.10;;;;;;5034342;28;20037;-58
2023/11/11 00:03:04;;;;;;;0.88;0.60;;;21.50;41.10;;;;;;5032317;28;20029;-56
2023/11/11 00:05:31;;;;;;;0.60;0.60;;;21.50;41.10;;;;;;5033520;28;20059;-58
2023/11/11 00:07:57;;;;;;;0.70;0.60;;;21.50;41.10;;;;;;5039011;28;20029;-59
2023/11/11 00:10:23;;;;;;;1.42;0.88;;;21.60;41.10;;;;;;5035599;28;20060;-59
2023/11/11 00:12:49;;;;;;;1.63;0.70;;;21.50;41.00;;;;;;5033366;28;20104;-59
2023/11/11 00:15:15;;;;;;;1.27;0.75;;;21.50;41.00;;;;;;5040826;28;20041;-57
2023/11/11 00:17:41;;;;;;;1.30;0.65;;;21.50;41.10;;;;;;5038834;28;20029;-58
2023/11/11 00:20:18;;;;;;;0.70;0.60;;;21.50;41.00;;;;;;5021805;28;20348;-61
2023/11/11 00:22:45;;;;;;;1.17;0.57;;;21.50;41.00;;;;;;5021791;28;20444;-55
2023/11/11 00:25:12;;;;;;;1.42;0.80;;;21.50;41.00;;;;;;5036742;28;20029;-57
2023/11/11 00:27:41;;;;;;;0.82;0.57;;;21.50;41.00;;;;;;5036508;28;20033;-59
2023/11/11 00:30:13;;;;;;;0.80;0.40;;;21.50;41.00;;;;;;5036098;28;20025;-57
2023/11/11 00:32:40;;;;;;;1.48;0.70;;;21.40;40.90;;;;;;5029734;28;20052;-57
2023/11/11 00:35:08;;;;;;;1.00;0.60;;;21.50;41.00;;;;;;5034474;28;21555;-59
2023/11/11 00:37:35;;;;;;;0.93;0.70;;;21.40;40.90;;;;;;5032884;28;20025;-57
2023/11/11 00:40:01;;;;;;;1.15;0.60;;;21.40;40.90;;;;;;5036222;28;20058;-58
2023/11/11 00:42:27;;;;;;;1.70;0.68;;;21.40;40.90;;;;;;5034166;28;20037;-60
2023/11/11 00:44:53;;;;;;;1.65;0.90;;;21.40;40.90;;;;;;5036150;28;20028;-58
2023/11/11 00:47:19;;;;;;;1.17;0.70;;;21.40;41.00;;;;;;5015490;28;20025;-56
2023/11/11 00:49:49;;;;;;;0.88;0.73;;;21.40;40.90;;;;;;5046119;28;20018;-56
2023/11/11 00:52:16;;;;;;;0.90;0.60;;;21.40;40.90;;;;;;5034231;28;20040;-59
2023/11/11 00:54:42;;;;;;;0.98;0.80;;;21.40;40.90;;;;;;5034723;28;20130;-56
2023/11/11 00:57:07;;;;;;;1.05;0.75;;;21.40;40.90;;;;;;5022852;28;20438;-56
2023/11/11 00:59:33;;;;;;;1.33;0.70;;;21.40;40.90;;;;;;5035036;28;20090;-56
2023/11/11 01:01:59;;;;;;;1.05;0.70;;;21.40;40.90;;;;;;5020109;28;20199;-59
2023/11/11 01:04:27;;;;;;;1.42;0.70;;;21.40;40.90;;;;;;5037948;28;20041;-58
2023/11/11 01:06:52;;;;;;;1.55;0.70;;;21.40;40.90;;;;;;5017358;28;20033;-57
2023/11/11 01:09:19;;;;;;;0.88;0.77;;;21.40;40.90;;;;;;5021894;28;20025;-56
2023/11/11 01:11:46;;;;;;;0.80;0.70;;;21.40;40.90;;;;;;5017958;28;20026;-54
2023/11/11 01:14:12;;;;;;;1.35;0.70;;;21.30;40.90;;;;;;5034046;28;20368;-58
2023/11/11 01:16:38;;;;;;;1.13;0.70;;;21.30;40.80;;;;;;5034712;28;20029;-55
2023/11/11 01:19:04;;;;;;;1.25;0.70;;;21.30;40.90;;;;;;5018748;28;20017;-58
2023/11/11 01:21:30;;;;;;;1.23;0.73;;;21.30;40.80;;;;;;5034696;28;20037;-54
2023/11/11 01:23:56;;;;;;;1.30;0.50;;;21.30;40.80;;;;;;5019450;28;20095;-53
2023/11/11 01:26:25;;;;;;;0.80;0.70;;;21.30;40.80;;;;;;5049881;28;20142;-59
2023/11/11 01:28:51;;;;;;;0.60;0.60;;;21.30;40.80;;;;;;5020608;28;20348;-58
2023/11/11 01:31:18;;;;;;;1.58;0.90;;;21.30;40.80;;;;;;5036453;28;20514;-58
2023/11/11 01:33:44;;;;;;;0.90;0.68;;;21.30;40.80;;;;;;5033143;28;20499;-59
2023/11/11 01:36:11;;;;;;;1.48;0.80;;;21.20;40.70;;;;;;5037239;28;20506;-54
2023/11/11 01:38:37;;;;;;;0.98;0.70;;;21.20;40.70;;;;;;5036059;28;20109;-58
2023/11/11 01:41:06;;;;;;;0.90;0.60;;;21.20;40.70;;;;;;5016814;28;20108;-56
2023/11/11 01:43:32;;;;;;;1.00;0.70;;;21.20;40.70;;;;;;5047630;28;20083;-57
2023/11/11 01:46:02;;;;;;;0.80;0.60;;;21.30;40.80;;;;;;5049375;28;20025;-56
2023/11/11 01:48:31;;;;;;;0.63;0.50;;;21.20;40.70;;;;;;5020256;28;20037;-58
2023/11/11 01:50:57;;;;;;;0.85;0.50;;;21.20;40.70;;;;;;5032959;28;20029;-58
2023/11/11 01:53:24;;;;;;;1.85;1.00;;;21.20;40.70;;;;;;5034122;28;20079;-53
2023/11/11 01:55:50;;;;;;;0.93;0.60;;;21.20;40.70;;;;;;5018172;28;20060;-54
2023/11/11 01:58:20;;;;;;;1.55;0.75;;;21.20;40.70;;;;;;5023955;28;20053;-58
2023/11/11 02:00:47;;;;;;;0.98;0.57;;;21.20;40.70;;;;;;5019530;28;20368;-57
2023/11/11 02:03:14;;;;;;;1.25;0.65;;;21.20;40.70;;;;;;5018038;28;20025;-56
2023/11/11 02:05:40;;;;;;;1.65;0.63;;;21.20;40.70;;;;;;5033823;28;20103;-55
2023/11/11 02:08:07;;;;;;;0.65;0.40;;;21.20;40.70;;;;;;5034875;28;20025;-56
2023/11/11 02:10:34;;;;;;;2.78;0.73;;;21.10;40.60;;;;;;5036405;28;20025;-56
2023/11/11 02:13:01;;;;;;;1.05;0.80;;;21.20;40.70;;;;;;5033730;28;20068;-59
2023/11/11 02:15:27;;;;;;;1.67;0.88;;;21.10;40.60;;;;;;5033285;28;20021;-57
2023/11/11 02:17:53;;;;;;;0.75;0.60;;;21.10;40.60;;;;;;5016448;28;20111;-56
2023/11/11 02:20:20;;;;;;;0.60;0.60;;;21.10;41.20;;;;;;5016696;28;20022;-59
2023/11/11 02:22:46;;;;;;;1.10;0.70;;;21.10;40.60;;;;;;5036427;28;20032;-59
2023/11/11 02:25:12;;;;;;;1.02;0.70;;;21.10;40.60;;;;;;5033579;28;20057;-57
2023/11/11 02:27:38;;;;;;;0.77;0.55;;;21.10;40.60;;;;;;5035615;28;20083;-57
2023/11/11 02:30:10;;;;;;;0.75;0.60;;;21.10;40.60;;;;;;5033541;28;20184;-58
2023/11/11 02:32:37;;;;;;;0.65;0.47;;;21.10;40.60;;;;;;5015079;28;20124;-59
2023/11/11 02:35:04;;;;;;;0.65;0.43;;;21.10;40.60;;;;;;5012846;28;20539;-56
2023/11/11 02:37:30;;;;;;;0.80;0.50;;;21.10;40.60;;;;;;5015366;28;20041;-55
2023/11/11 02:39:55;;;;;;;0.60;0.40;;;21.10;40.60;;;;;;5035914;28;20026;-55
2023/11/11 02:42:22;;;;;;;0.73;0.50;;;21.10;40.60;;;;;;5033703;28;20033;-57
2023/11/11 02:44:47;;;;;;;0.80;0.45;;;21.10;40.60;;;;;;5016593;28;20045;-55
2023/11/11 02:47:14;;;;;;;0.70;0.40;;;21.10;40.50;;;;;;5034179;28;20022;-57
2023/11/11 02:49:40;;;;;;;1.10;0.50;;;21.00;40.40;;;;;;5017265;28;20044;-56
2023/11/11 02:52:06;;;;;;;0.30;0.30;;;21.00;40.40;;;;;;5040188;28;20475;-57
2023/11/11 02:54:32;;;;;;;1.38;0.50;;;21.00;40.30;;;;;;5016637;28;20609;-57
2023/11/11 02:56:58;;;;;;;1.65;0.40;;;21.00;40.90;;;;;;5033089;28;20041;-54
2023/11/11 02:59:24;;;;;;;0.55;0.50;;;21.00;40.30;;;;;;5028004;28;20044;-56
2023/11/11 03:01:51;;;;;;;1.20;0.40;;;21.00;40.30;;;;;;5032799;28;20045;-58
2023/11/11 03:04:17;;;;;;;0.65;0.40;;;21.00;40.30;;;;;;5015477;28;20087;-55
2023/11/11 03:06:43;;;;;;;0.45;0.40;;;21.00;40.20;;;;;;5046505;28;20030;-53
2023/11/11 03:09:10;;;;;;;0.50;0.32;;;21.00;40.20;;;;;;5037520;28;20017;-54
2023/11/11 03:11:37;;;;;;;0.50;0.30;;;21.00;40.30;;;;;;5032436;28;20026;-59
2023/11/11 03:14:03;;;;;;;0.80;0.30;;;21.00;40.20;;;;;;5035933;28;20364;-59
2023/11/11 03:16:36;;;;;;;1.00;0.32;;;21.00;40.30;;;;;;5029564;28;20026;-56
2023/11/11 03:19:04;;;;;;;1.10;0.35;;;21.00;40.20;;;;;;5036608;28;20032;-59
2023/11/11 03:21:31;;;;;;;0.98;0.40;;;20.90;40.20;;;;;;5031911;28;20048;-57
2023/11/11 03:23:56;;;;;;;0.93;0.30;;;20.90;40.20;;;;;;5033171;28;20098;-59
2023/11/11 03:26:23;;;;;;;0.45;0.20;;;21.00;40.30;;;;;;5033022;28;20340;-57
2023/11/11 03:28:49;;;;;;;2.75;0.50;;;20.90;40.20;;;;;;5019893;28;20060;-59
2023/11/11 03:31:17;;;;;;;0.43;0.30;;;20.90;40.20;;;;;;5015862;28;20535;-56
2023/11/11 03:33:45;;;;;;;0.32;0.20;;;20.90;40.20;;;;;;5015401;28;20474;-56
2023/11/11 03:36:10;;;;;;;0.70;0.30;;;20.90;40.20;;;;;;5030725;28;20021;-58
2023/11/11 03:38:36;;;;;;;1.08;0.30;;;20.90;40.20;;;;;;5033547;28;20032;-57
2023/11/11 03:41:02;;;;;;;1.17;0.20;;;20.90;40.20;;;;;;5018903;28;20040;-55
2023/11/11 03:43:28;;;;;;;0.47;0.20;;;20.90;40.20;;;;;;5039033;28;20150;-58
2023/11/11 03:45:55;;;;;;;0.57;0.17;;;20.90;40.10;;;;;;5020018;28;20050;-58
2023/11/11 03:48:21;;;;;;;0.40;0.20;;;20.90;40.10;;;;;;5036273;28;20048;-54
2023/11/11 03:50:46;;;;;;;0.30;0.20;;;20.90;40.10;;;;;;5033076;28;20428;-54
2023/11/11 03:53:12;;;;;;;0.95;0.38;;;20.90;40.10;;;;;;5034716;28;20033;-55
2023/11/11 03:55:38;;;;;;;0.43;0.28;;;20.90;40.10;;;;;;5014847;28;20040;-53
2023/11/11 03:58:04;;;;;;;0.17;0.10;;;20.90;40.10;;;;;;5033516;28;20113;-56
2023/11/11 04:00:30;;;;;;;0.20;0.20;;;20.90;40.10;;;;;;5017538;28;20064;-61
2023/11/11 04:02:56;;;;;;;4.32;0.28;;;20.90;40.10;;;;;;5035708;28;20040;-57
2023/11/11 04:05:22;;;;;;;0.52;0.20;;;20.90;40.10;;;;;;5037638;28;20110;-55
2023/11/11 04:07:49;;;;;;;1.38;0.20;;;20.90;40.80;;;;;;5022681;28;20367;-56
2023/11/11 04:10:17;;;;;;;0.40;0.22;;;20.80;40.10;;;;;;5037335;28;20033;-58
2023/11/11 04:12:46;;;;;;;0.30;0.20;;;20.80;40.10;;;;;;5012306;28;20065;-59
2023/11/11 04:15:12;;;;;;;0.17;0.17;;;20.80;40.10;;;;;;5019224;28;20051;-56
2023/11/11 04:17:42;;;;;;;0.20;0.10;;;20.80;40.10;;;;;;5016168;28;20022;-57
2023/11/11 04:20:13;;;;;;;0.68;0.30;;;20.80;40.10;;;;;;5005868;28;20021;-58
2023/11/11 04:22:40;;;;;;;0.30;0.20;;;20.80;40.20;;;;;;5014982;28;20369;-57
2023/11/11 04:25:07;;;;;;;0.30;0.10;;;20.80;40.20;;;;;;5046657;28;21151;-55
2023/11/11 04:27:33;;;;;;;0.38;0.22;;;20.80;40.20;;;;;;5015073;28;20029;-59
2023/11/11 04:29:59;;;;;;;1.15;0.30;;;20.80;40.20;;;;;;5019356;28;20021;-58
2023/11/11 04:32:28;;;;;;;0.30;0.20;;;20.80;40.20;;;;;;5015302;28;20369;-59
2023/11/11 04:34:54;;;;;;;0.45;0.20;;;20.80;40.20;;;;;;5016132;28;20029;-57
2023/11/11 04:37:20;;;;;;;0.20;0.10;;;20.80;40.20;;;;;;5017842;28;20021;-57
2023/11/11 04:39:46;;;;;;;1.17;0.40;;;20.80;40.20;;;;;;5018119;28;20025;-58
2023/11/11 04:42:16;;;;;;;1.23;0.40;;;20.70;40.20;;;;;;5015998;28;20369;-58
2023/11/11 04:44:42;;;;;;;0.28;0.20;;;20.70;40.20;;;;;;5018538;28;20030;-59
2023/11/11 04:47:09;;;;;;;0.50;0.22;;;20.80;40.30;;;;;;5047763;28;20029;-60
2023/11/11 04:49:36;;;;;;;0.70;0.30;;;20.70;40.20;;;;;;5014743;28;20034;-58
2023/11/11 04:52:06;;;;;;;0.40;0.25;;;20.80;40.30;;;;;;5019168;28;20065;-55
2023/11/11 04:54:32;;;;;;;0.57;0.20;;;20.70;40.20;;;;;;5020457;28;20052;-54
2023/11/11 04:56:59;;;;;;;0.95;0.25;;;20.70;40.30;;;;;;5018220;28;20049;-56
2023/11/11 04:59:26;;;;;;;0.52;0.22;;;20.70;40.90;;;;;;5015845;28;21359;-54
2023/11/11 05:01:53;;;;;;;0.35;0.20;;;20.70;40.30;;;;;;5017776;28;20036;-57
2023/11/11 05:04:23;;;;;;;0.43;0.30;;;20.70;40.30;;;;;;5016519;28;20041;-54
2023/11/11 05:06:49;;;;;;;1.20;0.22;;;20.70;40.30;;;;;;5016158;28;20035;-56
2023/11/11 05:09:16;;;;;;;1.40;0.30;;;20.70;40.40;;;;;;5018142;28;20496;-58
2023/11/11 05:11:45;;;;;;;0.75;0.17;;;20.70;40.40;;;;;;5017279;28;20068;-57
2023/11/11 05:14:13;;;;;;;0.30;0.15;;;20.70;40.40;;;;;;5034148;28;20053;-58
2023/11/11 05:16:40;;;;;;;0.90;0.20;;;20.70;40.50;;;;;;5033615;28;20034;-56
2023/11/11 05:19:06;;;;;;;0.50;0.22;;;20.70;40.50;;;;;;5033409;28;20056;-57
2023/11/11 05:21:33;;;;;;;0.60;0.20;;;20.70;40.50;;;;;;5032887;28;20121;-56
2023/11/11 05:23:59;;;;;;;1.17;0.20;;;20.60;40.50;;;;;;5032915;28;20682;-56
2023/11/11 05:26:26;;;;;;;0.40;0.13;;;20.70;40.50;;;;;;5034402;28;20348;-56
2023/11/11 05:28:52;;;;;;;0.47;0.20;;;20.70;40.50;;;;;;5034043;28;20025;-56
2023/11/11 05:31:18;;;;;;;0.43;0.20;;;20.70;40.60;;;;;;5015234;28;20021;-60
2023/11/11 05:33:44;;;;;;;1.10;0.65;;;20.70;40.50;;;;;;5032611;28;20045;-58
2023/11/11 05:36:10;;;;;;;0.45;0.17;;;20.60;40.50;;;;;;5014057;28;20041;-57
2023/11/11 05:38:36;;;;;;;0.38;0.20;;;20.70;40.50;;;;;;5032230;28;20025;-55
2023/11/11 05:41:02;;;;;;;0.45;0.13;;;20.60;40.50;;;;;;5033011;28;20025;-56
2023/11/11 05:43:28;;;;;;;0.25;0.15;;;20.60;40.50;;;;;;5014890;28;20095;-57
2023/11/11 05:45:53;;;;;;;0.60;0.20;;;20.60;40.50;;;;;;5031065;28;20080;-58
2023/11/11 05:48:19;;;;;;;0.10;0.10;;;20.60;40.50;;;;;;5029331;28;20022;-58
2023/11/11 05:50:46;;;;;;;0.30;0.10;;;20.60;40.50;;;;;;5030885;28;20021;-56
2023/11/11 05:53:12;;;;;;;0.50;0.20;;;20.60;40.50;;;;;;5033720;28;20037;-58
2023/11/11 05:55:38;;;;;;;0.45;0.30;;;20.60;40.50;;;;;;5036146;28;20083;-59
2023/11/11 05:58:04;;;;;;;0.90;0.30;;;20.60;40.50;;;;;;5031268;28;20033;-57
2023/11/11 06:00:29;;;;;;;0.22;0.20;;;20.60;40.50;;;;;;5032384;28;20022;-53
2023/11/11 06:02:56;;;;;;;0.47;0.30;;;20.60;40.50;;;;;;5034712;28;20083;-53
2023/11/11 06:05:22;;;;;;;0.20;0.10;;;20.60;40.50;;;;;;5033527;28;20033;-59
2023/11/11 06:07:48;;;;;;;0.30;0.10;;;20.60;40.50;;;;;;5031772;28;20104;-58
2023/11/11 06:10:14;;;;;;;0.32;0.20;;;20.60;40.50;;;;;;5013039;28;20479;-55
2023/11/11 06:12:40;;;;;;;0.75;0.20;;;20.60;40.50;;;;;;5031678;28;20133;-56
2023/11/11 06:15:08;;;;;;;0.30;0.10;;;20.60;40.50;;;;;;5032929;28;20144;-58
2023/11/11 06:17:34;;;;;;;0.75;0.10;;;20.60;40.50;;;;;;5030400;28;20040;-57
2023/11/11 06:20:00;;;;;;;0.13;0.10;;;20.60;40.50;;;;;;5015498;28;20030;-58
2023/11/11 06:22:27;;;;;;;0.60;0.15;;;20.50;40.50;;;;;;5031900;28;20025;-56
2023/11/11 06:24:53;;;;;;;0.82;0.10;;;20.50;40.50;;;;;;5033549;28;20099;-55
2023/11/11 06:27:19;;;;;;;0.73;0.30;;;20.50;40.50;;;;;;5031895;28;20388;-55
2023/11/11 06:29:45;;;;;;;0.30;0.25;;;20.50;40.50;;;;;;5014887;28;20029;-58
2023/11/11 06:32:11;;;;;;;0.95;0.38;;;20.50;40.50;;;;;;5014008;28;20034;-58
2023/11/11 06:34:37;;;;;;;0.10;0.10;;;20.50;41.10;;;;;;5016231;28;20025;-58
2023/11/11 06:37:04;;;;;;;0.00;0.00;;;20.50;40.40;;;;;;5031443;28;20388;-55
2023/11/11 06:39:30;;;;;;;0.45;0.20;;;20.50;40.40;;;;;;5032635;28;20121;-56
2023/11/11 06:41:56;;;;;;;0.57;0.20;;;20.50;40.40;;;;;;5030272;28;20360;-56
2023/11/11 06:44:22;;;;;;;0.80;0.10;;;20.50;40.30;;;;;;5033553;28;20041;-54
2023/11/11 06:46:49;;;;;;;0.17;0.10;;;20.50;40.40;;;;;;5013334;28;20025;-59
2023/11/11 06:49:15;;;;;;;0.28;0.10;;;20.50;40.40;;;;;;5033571;28;20025;-58
2023/11/11 06:51:41;;;;;;;0.28;0.20;;;20.50;40.40;;;;;;5033615;28;20026;-57
2023/11/11 06:54:09;;;;;;;1.00;0.20;;;20.50;40.30;;;;;;5029980;28;20037;-59
2023/11/11 06:56:35;;;;;;;0.60;0.20;;;20.50;40.30;;;;;;5030870;28;20041;-56
2023/11/11 06:59:02;;;;;;;0.30;0.08;;;20.50;40.20;;;;;;5030638;28;20032;-58
2023/11/11 07:01:29;;;;;;;0.10;0.10;;;20.50;40.20;;;;;;5033991;28;20103;-56
2023/11/11 07:03:56;;;;;;;0.40;0.10;;;20.50;40.20;;;;;;5033031;28;20033;-56
2023/11/11 07:06:22;;;;;;;1.52;0.30;;;20.50;40.20;;;;;;5013369;28;20084;-56
2023/11/11 07:08:52;;;;;;;1.23;0.40;;;20.50;40.20;;;;;;5034479;28;20115;-58
2023/11/11 07:11:19;;;;;;;0.50;0.20;;;20.50;40.20;;;;;;5033764;28;20067;-55
2023/11/11 07:13:46;;;;;;;0.47;0.20;;;20.50;40.20;;;;;;5029870;28;20061;-59
2023/11/11 07:16:17;;;;;;;0.30;0.20;;;20.50;40.20;;;;;;5029635;28;20029;-57
2023/11/11 07:18:43;;;;;;;0.20;0.13;;;20.50;40.20;;;;;;5030663;28;20406;-57
2023/11/11 07:21:24;;;;;;;0.45;0.30;;;20.50;40.30;;;;;;5013151;28;20034;-56
2023/11/11 07:23:53;;;;;;;0.70;0.30;;;20.40;40.20;;;;;;5031810;28;20045;-53
2023/11/11 07:26:19;;;;;;;0.75;0.20;;;20.40;40.30;;;;;;5032840;28;20071;-56
2023/11/11 07:28:46;;;;;;;1.33;0.43;;;20.40;40.30;;;;;;5030673;28;20025;-56
2023/11/11 07:31:15;;;;;;;0.75;0.43;;;20.40;40.30;;;;;;5031800;28;20113;-57
2023/11/11 07:33:42;;;;;;;1.02;0.40;;;20.40;40.30;;;;;;5030948;28;20426;-56
2023/11/11 07:36:12;;;;;;;0.77;0.30;;;20.40;40.30;;;;;;5017229;28;20507;-57
2023/11/11 07:38:39;;;;;;;0.40;0.20;;;20.40;40.30;;;;;;5035561;28;20205;-56
2023/11/11 07:41:08;;;;;;;0.75;0.30;;;20.40;40.90;;;;;;5034728;28;20025;-59
2023/11/11 07:43:35;;;;;;;0.55;0.30;;;20.40;40.30;;;;;;5019736;28;20040;-57
2023/11/11 07:46:06;;;;;;;0.50;0.30;;;20.40;40.20;;;;;;5016384;28;20380;-57
2023/11/11 07:48:33;;;;;;;0.98;0.28;;;20.40;40.80;;;;;;5032435;28;20095;-54
2023/11/11 07:51:01;;;;;;;1.08;0.20;;;20.40;40.10;;;;;;5036632;28;20025;-57
2023/11/11 07:53:27;;;;;;;0.22;0.10;;;20.40;40.10;;;;;;5035354;28;20128;-53
2023/11/11 07:55:53;;;;;;;0.68;0.10;;;20.40;40.00;;;;;;5034953;28;20352;-53
2023/11/11 07:58:20;;;;;;;1.13;0.28;;;20.40;40.00;;;;;;5035578;28;20029;-58
2023/11/11 08:00:47;;;;;;;0.40;0.20;;;20.40;40.00;;;;;;5035840;28;20029;-56
2023/11/11 08:03:12;;;;;;;0.47;0.08;;;20.40;40.20;;;;;;5034815;28;20033;-57
2023/11/11 08:05:38;;;;;;;0.40;0.20;;;20.40;40.10;;;;;;5033623;28;20026;-56
2023/11/11 08:08:05;;;;;;;0.30;0.10;;;20.40;40.30;;;;;;5022270;28;20021;-60
2023/11/11 08:10:31;;;;;;;0.10;0.10;;;20.40;40.00;;;;;;5018534;28;20025;-55
2023/11/11 08:12:58;;;;;;;0.50;0.30;;;20.40;39.90;;;;;;5018361;28;20053;-56
2023/11/11 08:15:24;;;;;;;0.60;0.20;;;20.40;39.80;;;;;;5034944;28;20025;-58
2023/11/11 08:17:50;;;;;;;0.55;0.30;;;20.40;39.80;;;;;;5036146;28;20032;-56
2023/11/11 08:20:16;;;;;;;0.82;0.43;;;20.50;39.90;;;;;;5033396;28;20034;-58
2023/11/11 08:22:43;;;;;;;0.10;0.10;;;20.50;40.00;;;;;;5038403;28;20032;-57
2023/11/11 08:25:12;;;;;;;0.50;0.30;;;20.50;40.00;;;;;;5038761;28;20025;-54
2023/11/11 08:27:45;;;;;;;0.30;0.20;;;20.50;39.90;;;;;;5043496;28;20021;-59
2023/11/11 08:30:12;;;;;;;0.40;0.10;;;20.50;39.80;;;;;;5022258;28;20025;-54
2023/11/11 08:32:39;;;;;;;0.32;0.20;;;20.50;39.90;;;;;;5042965;28;20036;-54
2023/11/11 08:35:07;;;;;;;0.20;0.20;;;20.50;39.80;;;;;;5042207;28;20460;-57
2023/11/11 08:37:33;;;;;;;0.70;0.30;;;20.50;39.80;;;;;;5041598;28;20070;-56
2023/11/11 08:40:03;;;;;;;0.57;0.30;;;20.50;39.80;;;;;;5024989;28;20037;-56
2023/11/11 08:42:28;;;;;;;0.80;0.20;;;20.50;39.80;;;;;;5042125;28;20108;-58
2023/11/11 08:44:58;;;;;;;0.85;0.25;;;20.50;39.80;;;;;;5037829;28;20113;-57
2023/11/11 08:47:25;;;;;;;0.75;0.25;;;20.50;40.10;;;;;;5039641;28;20094;-55
2023/11/11 08:49:51;;;;;;;0.65;0.20;;;20.50;40.20;;;;;;5043680;28;20098;-55
2023/11/11 08:52:17;;;;;;;0.63;0.30;;;20.60;40.30;;;;;;5038863;28;20447;-54
2023/11/11 08:54:43;;;;;;;0.30;0.10;;;20.60;40.20;;;;;;5036537;28;20096;-56
2023/11/11 08:57:11;;;;;;;0.57;0.20;;;20.60;40.20;;;;;;5039963;28;20360;-57
2023/11/11 08:59:37;;;;;;;0.25;0.15;;;20.60;40.20;;;;;;5040904;28;20090;-59
2023/11/11 09:02:03;;;;;;;0.68;0.30;;;20.60;40.10;;;;;;5041056;28;20029;-57
2023/11/11 09:04:29;;;;;;;0.30;0.20;;;20.60;40.10;;;;;;5038901;28;20033;-58
2023/11/11 09:06:56;;;;;;;0.32;0.13;;;20.60;40.10;;;;;;5040488;28;20033;-56
2023/11/11 09:09:22;;;;;;;0.35;0.20;;;20.60;40.10;;;;;;5039398;28;20036;-56
2023/11/11 09:11:48;;;;;;;0.40;0.20;;;20.60;40.10;;;;;;5022463;28;20037;-55
2023/11/11 09:14:14;;;;;;;0.32;0.20;;;20.60;40.10;;;;;;5040500;28;20419;-58
2023/11/11 09:16:40;;;;;;;0.30;0.22;;;20.70;40.20;;;;;;5017622;28;20044;-54
2023/11/11 09:19:06;;;;;;;0.40;0.20;;;20.60;40.20;;;;;;5036162;28;20083;-54
2023/11/11 09:21:32;;;;;;;0.30;0.20;;;20.70;40.20;;;;;;5031460;28;20418;-54
2023/11/11 09:24:00;;;;;;;0.45;0.20;;;20.70;40.20;;;;;;5031944;28;20167;-57
2023/11/11 09:26:27;;;;;;;0.45;0.20;;;20.80;40.90;;;;;;5033764;28;20021;-56
2023/11/11 09:28:53;;;;;;;2.45;0.35;;;20.80;40.30;;;;;;5015359;28;20040;-56
2023/11/11 09:31:20;;;;;;;1.25;0.22;;;20.90;40.30;;;;;;5033561;28;20021;-57
2023/11/11 09:33:46;;;;;;;0.80;0.28;;;20.90;40.20;;;;;;5014911;28;20029;-52
2023/11/11 09:36:12;;;;;;;0.28;0.20;;;21.00;40.20;;;;;;5036351;28;20032;-55
2023/11/11 09:38:40;;;;;;;0.30;0.20;;;21.00;40.20;;;;;;5032489;28;20033;-56
2023/11/11 09:41:06;;;;;;;0.60;0.30;;;21.10;40.20;;;;;;5032640;28;20034;-55
2023/11/11 09:43:33;;;;;;;0.63;0.20;;;21.10;40.10;;;;;;5020419;28;20041;-56
2023/11/11 09:46:02;;;;;;;1.05;0.30;;;21.10;40.10;;;;;;5011356;28;20108;-57
2023/11/11 09:48:30;;;;;;;0.95;0.52;;;21.20;40.20;;;;;;5039079;28;20029;-56
2023/11/11 09:50:57;;;;;;;1.00;0.25;;;21.20;40.10;;;;;;5042154;28;20025;-52
2023/11/11 09:53:26;;;;;;;0.15;0.13;;;21.20;40.10;;;;;;5019276;28;20059;-55
2023/11/11 09:55:54;;;;;;;0.60;0.20;;;21.20;40.00;;;;;;5041531;28;20047;-58
2023/11/11 09:58:21;;;;;;;0.90;0.38;;;21.30;40.00;;;;;;5018919;28;20345;-58
2023/11/11 10:00:48;;;;;;;0.20;0.10;;;21.30;40.00;;;;;;5021062;28;20111;-58
2023/11/11 10:03:14;;;;;;;0.35;0.10;;;21.30;39.90;;;;;;5037546;28;20082;-54
2023/11/11 10:05:40;;;;;;;1.85;0.57;;;21.30;39.90;;;;;;5038371;28;21832;-55
2023/11/11 10:08:07;;;;;;;0.20;0.20;;;21.30;40.50;;;;;;5031021;28;20083;-58
2023/11/11 10:10:34;;;;;;;0.30;0.20;;;21.40;39.90;;;;;;5037810;28;20487;-57
2023/11/11 10:13:00;;;;;;;1.20;0.32;;;21.30;39.80;;;;;;5039927;28;20382;-56
2023/11/11 10:15:26;;;;;;;0.65;0.30;;;21.30;39.70;;;;;;5036453;28;20108;-56
2023/11/11 10:17:52;;;;;;;0.30;0.20;;;21.40;39.70;;;;;;5039346;28;20049;-56
2023/11/11 10:20:18;;;;;;;0.90;0.43;;;21.40;39.70;;;;;;5038537;28;20072;-51
2023/11/11 10:22:47;;;;;;;0.60;0.25;;;21.40;39.70;;;;;;5039465;28;20029;-57
2023/11/11 10:25:18;;;;;;;1.10;0.40;;;21.40;39.70;;;;;;5043202;28;20367;-54
2023/11/11 10:28:02;;;;;;;0.93;0.43;;;21.40;39.70;;;;;;5039116;28;20456;-58
2023/11/11 10:30:28;;;;;;;0.40;0.30;;;21.40;39.70;;;;;;5042455;28;20039;-53
2023/11/11 10:32:56;;;;;;;1.08;0.40;;;21.40;39.80;;;;;;5017033;28;20041;-56
2023/11/11 10:35:24;;;;;;;0.90;0.40;;;21.40;40.00;;;;;;5037449;28;20512;-53
2023/11/11 10:37:50;;;;;;;2.35;0.57;;;21.40;40.10;;;;;;5040432;28;20091;-52
2023/11/11 10:40:17;;;;;;;1.48;0.40;;;21.40;40.10;;;;;;5042701;28;20037;-53
2023/11/11 10:42:45;;;;;;;1.50;0.40;;;21.40;40.20;;;;;;5036741;28;20041;-55
2023/11/11 10:45:15;;;;;;;1.02;0.40;;;21.40;40.30;;;;;;5040808;28;20029;-53
2023/11/11 10:47:43;;;;;;;0.88;0.50;;;21.40;40.30;;;;;;5040904;28;21430;-56
2023/11/11 10:50:11;;;;;;;0.30;0.30;;;21.40;40.40;;;;;;5035317;28;20421;-56
2023/11/11 10:52:39;;;;;;;0.70;0.50;;;21.40;40.40;;;;;;5038893;28;20037;-54
2023/11/11 10:55:10;;;;;;;1.52;0.63;;;21.50;40.50;;;;;;5037172;28;20466;-56
2023/11/11 10:57:40;;;;;;;0.93;0.43;;;21.50;40.40;;;;;;5039730;28;20032;-54
2023/11/11 11:00:17;;;;;;;2.28;0.73;;;21.40;40.40;;;;;;5039437;28;20033;-56
2023/11/11 11:02:47;;;;;;;1.05;0.50;;;21.40;40.30;;;;;;5041122;28;20491;-55
2023/11/11 11:05:24;;;;;;;0.73;0.40;;;21.40;40.30;;;;;;5036054;28;20037;-57
2023/11/11 11:07:59;;;;;;;1.35;0.47;;;21.40;40.30;;;;;;5031028;28;20692;-57
2023/11/11 11:10:38;;;;;;;1.05;0.40;;;21.40;40.30;;;;;;5035066;28;20454;-54
2023/11/11 11:13:09;;;;;;;0.85;0.40;;;21.40;40.30;;;;;;5033724;28;20076;-57
2023/11/11 11:15:39;;;;;;;0.82;0.40;;;21.40;40.30;;;;;;5038135;28;20139;-59
2023/11/11 11:18:10;;;;;;;0.95;0.50;;;21.40;40.30;;;;;;5034421;28;20107;-55
2023/11/11 11:20:37;;;;;;;0.47;0.30;;;21.40;40.20;;;;;;5038225;28;20317;-58
2023/11/11 11:23:10;;;;;;;1.50;0.40;;;21.40;40.20;;;;;;5038806;28;20036;-56
2023/11/11 11:25:41;;;;;;;1.33;0.43;;;21.40;40.20;;;;;;5032856;28;20440;-56
2023/11/11 11:28:10;;;;;;;0.68;0.40;;;21.40;40.20;;;;;;5037273;28;20292;-56
2023/11/11 11:30:39;;;;;;;0.73;0.40;;;21.40;40.20;;;;;;5031705;28;20026;-53
2023/11/11 11:33:09;;;;;;;1.10;0.50;;;21.40;40.20;;;;;;5032382;28;20372;-53
2023/11/11 11:35:38;;;;;;;0.90;0.40;;;21.40;40.20;;;;;;5035156;28;20036;-53
2023/11/11 11:38:06;;;;;;;0.95;0.50;;;21.40;40.30;;;;;;5039130;28;20021;-55
2023/11/11 11:40:38;;;;;;;0.60;0.40;;;21.40;40.30;;;;;;5037829;28;20036;-56
2023/11/11 11:43:10;;;;;;;1.05;0.60;;;21.40;40.30;;;;;;5033452;28;20025;-55
2023/11/11 11:45:38;;;;;;;0.77;0.30;;;21.40;40.30;;;;;;5033414;28;20491;-56
2023/11/11 11:48:06;;;;;;;0.75;0.40;;;21.40;40.30;;;;;;5034175;28;20061;-53
2023/11/11 11:50:34;;;;;;;1.15;0.50;;;21.40;40.30;;;;;;5040058;28;20029;-54
2023/11/11 11:53:01;;;;;;;1.05;0.40;;;21.40;40.40;;;;;;5034855;28;20055;-56
2023/11/11 11:55:40;;;;;;;0.90;0.40;;;21.40;40.40;;;;;;5038695;28;20393;-49
2023/11/11 11:58:06;;;;;;;0.88;0.40;;;21.40;40.40;;;;;;5039657;28;20036;-57
2023/11/11 12:00:36;;;;;;;0.43;0.32;;;21.40;40.50;;;;;;5019157;28;20356;-53
2023/11/11 12:03:03;;;;;;;0.60;0.30;;;21.40;40.50;;;;;;5042332;28;20414;-50
2023/11/11 12:05:29;;;;;;;0.70;0.50;;;21.40;40.50;;;;;;5037793;28;20079;-53
2023/11/11 12:07:55;;;;;;;0.93;0.40;;;21.40;40.60;;;;;;5035607;28;20018;-57
2023/11/11 12:10:21;;;;;;;0.85;0.50;;;21.40;40.60;;;;;;5039078;28;20110;-54
2023/11/11 12:12:47;;;;;;;0.93;0.55;;;21.40;40.60;;;;;;5041586;28;20067;-55
2023/11/11 12:15:17;;;;;;;1.73;0.57;;;21.40;40.60;;;;;;5038909;28;20343;-54
2023/11/11 12:17:45;;;;;;;0.95;0.30;;;21.30;40.50;;;;;;5033992;28;20027;-54
2023/11/11 12:20:15;;;;;;;0.80;0.40;;;21.40;40.60;;;;;;5036388;28;20095;-56
2023/11/11 12:22:42;;;;;;;1.88;0.60;;;21.40;40.60;;;;;;5037856;28;20044;-51
2023/11/11 12:25:10;;;;;;;0.63;0.22;;;21.40;40.70;;;;;;5045045;28;20113;-54
2023/11/11 12:27:39;;;;;;;0.70;0.30;;;21.30;40.60;;;;;;5039104;28;20036;-53
2023/11/11 12:30:21;;;;;;;0.88;0.30;;;21.30;40.60;;;;;;5039803;28;20018;-53
2023/11/11 12:33:08;;;;;;;0.93;0.40;;;21.30;40.60;;;;;;5037845;28;20041;-55
2023/11/11 12:35:37;;;;;;;1.15;0.32;;;21.30;40.60;;;;;;5040965;28;20080;-55
2023/11/11 12:38:22;;;;;;;0.47;0.32;;;21.30;40.60;;;;;;5037224;28;20025;-53
2023/11/11 12:40:49;;;;;;;0.60;0.38;;;21.30;40.70;;;;;;5044289;28;20025;-54
2023/11/11 12:43:16;;;;;;;0.85;0.40;;;21.30;40.80;;;;;;5038482;28;20052;-55
2023/11/11 12:45:46;;;;;;;0.63;0.28;;;21.30;41.40;;;;;;5033944;28;20025;-56
2023/11/11 12:48:16;;;;;;;0.50;0.40;;;21.30;40.80;;;;;;5035281;28;20030;-57